Brooklyn, Minnesota
Current Conditions -  °F | °C
As of 4:53 AM on Friday 31 Oct 2014 (Local Time) from KHIB Reporting Station
Overcast Overcast  
Wind Chill: 19°   Ceiling: 2700
Heat Index: 27°   Visibility: 10mi
Dew Point: 16°   Wind: 8mph
Humidity: 63%   Direction: 10°N
Pressure: 30.49"   Gusts: NA
Location:  47.4158°N, 93.0053°W
Report Text: KHIB 310953Z AUTO 01007KT 10SM OVC027 M03/M09 A3049 RMK AO2 SLP346 T10281089
Loading
Personal Weather Stations






























Interactive Weather Map
Tropical Storm Tracking
New forecast layout! Learn more

10-Day Weather Forecast

Advertisements
Track Severe Weather on mobile